Terminal Aerodrome Forecast
Issued by NWS

Home | Current Version | Previous Version | Text Only | Print | Product List | Glossary On
Versions: 1 2 3 4 5 6 7 8 9 10 11 12 13 14
000
FTUS45 KPSR 251133
TAFIPL
TAF
KIPL 251133Z 2512/2612 27012KT P6SM SCT250
     FM251700 26018G28KT P6SM FEW070 SCT120
     FM252100 27026G38KT 5SM BLDU FEW070 SCT120
     FM260500 26015G25KT P6SM FEW070 SCT120=

USA.gov is the U.S. government's official web portal to all federal, state and local government web resources and services.